Munson — MUNSON — position and weather

sailwx.info

Track history (hours):
 
Tides and Currents Weather Stations Pressure Air Temp Water Temp Dewpoint Dewpoint Depression Visibility Wind Speed Wind Dir Waves Ship Positions

Munson

Last reported at 2018-Mar-21 20:14 UTC. Time now 2018-Apr-27 05:06 UTC.
Position N 47°34' W 122°32'.
Warning: this ship's position is 36 days out of date.

Length 9 m.

Type: Diving. MMSI: 338230285.

Date/timePositionNaut miles runAvg speedWind from/ knotsBaromVisibWave heightAir tempDewpointWater temp
2018-Mar-21 20:14N 47°34' W 122°32'2 8.4
2018-Mar-21 19:59N 47°35' W 122°29'0 0.0
2018-Mar-21 19:30N 47°35' W 122°29'1 2.4
2018-Mar-21 18:58N 47°34' W 122°30'0 0.1
2018-Mar-21 18:28N 47°34' W 122°30'3 6.4
2018-Mar-21 17:59N 47°31' W 122°30'9 7.6
2018-Mar-21 16:52N 47°23' W 122°32'614.2
2018-Mar-21 16:28N 47°19' W 122°25'0 0.3
2018-Mar-21 15:59N 47°19' W 122°26'0 0.0
2018-Mar-21 15:29N 47°19' W 122°26'917.8
2018-Mar-21 14:58N 47°28' W 122°31'  
Track history (hours):
 
Tides and Currents Weather Stations Pressure Air Temp Water Temp Dewpoint Dewpoint Depression Visibility Wind Speed Wind Dir Waves Ship Positions

Munson

Last reported at 2018-Mar-21 20:14 UTC. Time now 2018-Apr-27 05:06 UTC.
Position N 47°34' W 122°32'.
Warning: this ship's position is 36 days out of date.

Length 9 m.

Type: Diving. MMSI: 338230285.

Date/timePositionNaut miles runAvg speedWind from/ knotsBaromVisibWave heightAir tempDewpointWater temp
2018-Mar-21 20:14N 47°34' W 122°32'2 8.4
2018-Mar-21 19:59N 47°35' W 122°29'0 0.0
2018-Mar-21 19:30N 47°35' W 122°29'1 2.4
2018-Mar-21 18:58N 47°34' W 122°30'0 0.1
2018-Mar-21 18:28N 47°34' W 122°30'3 6.4
2018-Mar-21 17:59N 47°31' W 122°30'9 7.6
2018-Mar-21 16:52N 47°23' W 122°32'614.2
2018-Mar-21 16:28N 47°19' W 122°25'0 0.3
2018-Mar-21 15:59N 47°19' W 122°26'0 0.0
2018-Mar-21 15:29N 47°19' W 122°26'917.8
2018-Mar-21 14:58N 47°28' W 122°31'  

Dump ship's entire track history